メインページ
METAR-TAF:

METAR-TAF

空港 :

タシュケント国際空港

タシュケント, ウズベキスタン

緯度: 41-16N, 経度: 069-16E, 海抜: 489m

現時点の気象観測

当レポートは41分前の02:30(UTC)に作成
東/北東の風 6kt、からの間で変化する
気温 19°C
湿度 56%
気圧 1017 hPa
視程10km以上
1,500メートル以下は雲なし、積乱雲なし

METAR: UTTT 210230Z 06006KT 360V090 CAVOK 19/10 Q1017 R26R/CLRD70 NOSIG

時間: 08:11 (03:11 UTC)

予報

当レポートは4時間11分前の23:00(UTC)に作成
予報は21日の 00時(UTC)から 21日の 24時(UTC)まで有効
の風 8kt
視程: 7000m
高度6000ftの雲はほとんどない, 積乱雲.
高度10000ftの雲は散在している
21日の 06時(UTC)から 21日の 18時(UTC)まで一時的に
北西の風 12kt
高度5000ftの雲は散在している, 積乱雲.
高度10000ftの千切れ雲あり
確率 40% :
21日の 06時(UTC)から 21日の 18時(UTC)まで一時的に
高度4000ftの千切れ雲あり, 積乱雲.
激しい雷雨, 小雨

TAF: UTTT 202300Z 2100/2124 08008KT 7000 FEW060CB SCT100 TEMPO 2106/2118 32012KT SCT050CB BKN100 PROB40 TEMPO 2106/2118 -TSRA BKN040CB

4,000以上の空港の気象観測と天気予報(METAR報とTAF報)

利用可能な観測所は地図上に黄色い丸と赤い丸で示す。

丸の上にカーソルを重ねると観測所名を参照できる。

次にクリックすると気象観測と天気予報を参照できる。

マップの切り替え:黒色「×」印の緑ボタンをクリックして拡大、「-」印の緑ボタンをクリックして縮小、緑色の三角印をクリックして隣りの地図に切り替え


METAR-TAF: